sensor_id;sensor_type;location;lat;lon;timestamp;P1;durP1;ratioP1;P2;durP2;ratioP2
48665;SDS011;34452;50.796;4.994;2022-11-15T00:01:54;21.37;;;12.37;;
48665;SDS011;34452;50.796;4.994;2022-11-15T00:04:20;15.80;;;12.20;;
48665;SDS011;34452;50.796;4.994;2022-11-15T00:06:45;24.90;;;12.33;;
48665;SDS011;34452;50.796;4.994;2022-11-15T00:09:11;18.85;;;12.18;;
48665;SDS011;34452;50.796;4.994;2022-11-15T00:11:37;23.08;;;12.27;;
48665;SDS011;34452;50.796;4.994;2022-11-15T00:14:02;20.77;;;10.95;;
48665;SDS011;34452;50.796;4.994;2022-11-15T00:16:28;25.53;;;12.37;;
48665;SDS011;34452;50.796;4.994;2022-11-15T00:18:54;20.73;;;12.18;;
48665;SDS011;34452;50.796;4.994;2022-11-15T00:21:20;19.95;;;11.65;;
48665;SDS011;34452;50.796;4.994;2022-11-15T00:23:46;20.95;;;12.00;;
48665;SDS011;34452;50.796;4.994;2022-11-15T00:26:12;25.88;;;12.45;;
48665;SDS011;34452;50.796;4.994;2022-11-15T00:28:40;20.42;;;12.80;;
48665;SDS011;34452;50.796;4.994;2022-11-15T00:31:08;20.25;;;12.10;;
48665;SDS011;34452;50.796;4.994;2022-11-15T00:33:37;21.65;;;12.48;;
48665;SDS011;34452;50.796;4.994;2022-11-15T00:36:06;25.53;;;12.60;;
48665;SDS011;34452;50.796;4.994;2022-11-15T00:38:37;22.52;;;12.60;;
48665;SDS011;34452;50.796;4.994;2022-11-15T00:41:04;21.55;;;12.52;;
48665;SDS011;34452;50.796;4.994;2022-11-15T00:43:31;21.50;;;12.57;;
48665;SDS011;34452;50.796;4.994;2022-11-15T00:48:23;24.38;;;13.45;;
48665;SDS011;34452;50.796;4.994;2022-11-15T00:50:49;22.80;;;12.00;;
48665;SDS011;34452;50.796;4.994;2022-11-15T00:53:16;21.02;;;11.85;;
48665;SDS011;34452;50.796;4.994;2022-11-15T00:55:42;18.92;;;12.82;;
48665;SDS011;34452;50.796;4.994;2022-11-15T00:58:08;20.67;;;12.75;;
48665;SDS011;34452;50.796;4.994;2022-11-15T01:00:34;20.75;;;13.18;;
48665;SDS011;34452;50.796;4.994;2022-11-15T01:03:00;21.67;;;12.45;;
48665;SDS011;34452;50.796;4.994;2022-11-15T01:05:26;27.50;;;13.20;;
48665;SDS011;34452;50.796;4.994;2022-11-15T01:07:52;19.52;;;12.70;;
48665;SDS011;34452;50.796;4.994;2022-11-15T01:10:20;24.25;;;13.73;;
48665;SDS011;34452;50.796;4.994;2022-11-15T01:15:11;25.65;;;12.00;;
48665;SDS011;34452;50.796;4.994;2022-11-15T01:17:37;25.30;;;12.60;;
48665;SDS011;34452;50.796;4.994;2022-11-15T01:20:03;19.33;;;12.95;;
48665;SDS011;34452;50.796;4.994;2022-11-15T01:24:55;26.80;;;12.90;;
48665;SDS011;34452;50.796;4.994;2022-11-15T01:27:20;23.48;;;12.95;;
48665;SDS011;34452;50.796;4.994;2022-11-15T01:29:46;19.10;;;12.63;;
48665;SDS011;34452;50.796;4.994;2022-11-15T01:32:12;19.20;;;12.05;;
48665;SDS011;34452;50.796;4.994;2022-11-15T01:34:38;23.50;;;12.80;;
48665;SDS011;34452;50.796;4.994;2022-11-15T01:37:04;26.07;;;12.87;;
48665;SDS011;34452;50.796;4.994;2022-11-15T01:39:29;19.98;;;11.95;;
48665;SDS011;34452;50.796;4.994;2022-11-15T01:41:55;25.27;;;12.90;;
48665;SDS011;34452;50.796;4.994;2022-11-15T01:46:59;22.00;;;12.60;;
48665;SDS011;34452;50.796;4.994;2022-11-15T01:49:27;21.55;;;12.38;;
48665;SDS011;34452;50.796;4.994;2022-11-15T01:51:55;26.10;;;12.93;;
48665;SDS011;34452;50.796;4.994;2022-11-15T01:54:22;24.38;;;13.07;;
48665;SDS011;34452;50.796;4.994;2022-11-15T01:56:51;23.58;;;12.45;;
48665;SDS011;34452;50.796;4.994;2022-11-15T01:59:26;22.00;;;12.68;;
48665;SDS011;34452;50.796;4.994;2022-11-15T02:01:52;21.30;;;13.18;;
48665;SDS011;34452;50.796;4.994;2022-11-15T02:04:28;21.63;;;12.05;;
48665;SDS011;34452;50.796;4.994;2022-11-15T02:06:56;21.67;;;12.73;;
48665;SDS011;34452;50.796;4.994;2022-11-15T02:09:22;23.23;;;12.27;;
48665;SDS011;34452;50.796;4.994;2022-11-15T02:11:48;23.23;;;13.73;;
48665;SDS011;34452;50.796;4.994;2022-11-15T02:14:16;22.38;;;13.35;;
48665;SDS011;34452;50.796;4.994;2022-11-15T02:19:50;22.35;;;13.10;;
48665;SDS011;34452;50.796;4.994;2022-11-15T02:39:41;22.40;;;13.02;;
48665;SDS011;34452;50.796;4.994;2022-11-15T02:42:21;22.08;;;13.73;;
48665;SDS011;34452;50.796;4.994;2022-11-15T02:45:10;24.23;;;12.18;;
48665;SDS011;34452;50.796;4.994;2022-11-15T02:47:43;23.50;;;13.15;;
48665;SDS011;34452;50.796;4.994;2022-11-15T02:50:12;23.98;;;12.98;;
48665;SDS011;34452;50.796;4.994;2022-11-15T02:52:44;23.17;;;13.43;;
48665;SDS011;34452;50.796;4.994;2022-11-15T02:55:31;28.63;;;14.90;;
48665;SDS011;34452;50.796;4.994;2022-11-15T03:01:13;33.17;;;14.52;;
48665;SDS011;34452;50.796;4.994;2022-11-15T03:04:14;29.48;;;14.35;;
48665;SDS011;34452;50.796;4.994;2022-11-15T03:06:49;31.00;;;14.32;;
48665;SDS011;34452;50.796;4.994;2022-11-15T03:12:35;37.75;;;16.45;;
48665;SDS011;34452;50.796;4.994;2022-11-15T03:15:15;28.77;;;16.45;;
48665;SDS011;34452;50.796;4.994;2022-11-15T03:20:32;26.50;;;14.48;;
48665;SDS011;34452;50.796;4.994;2022-11-15T03:23:01;23.88;;;15.32;;
48665;SDS011;34452;50.796;4.994;2022-11-15T03:25:31;24.23;;;14.45;;
48665;SDS011;34452;50.796;4.994;2022-11-15T03:27:59;31.00;;;15.10;;
48665;SDS011;34452;50.796;4.994;2022-11-15T03:30:30;23.10;;;13.95;;
48665;SDS011;34452;50.796;4.994;2022-11-15T03:32:59;28.20;;;14.88;;
48665;SDS011;34452;50.796;4.994;2022-11-15T03:35:27;25.65;;;14.35;;
48665;SDS011;34452;50.796;4.994;2022-11-15T03:46:11;23.67;;;12.88;;
48665;SDS011;34452;50.796;4.994;2022-11-15T03:48:41;21.73;;;12.07;;
48665;SDS011;34452;50.796;4.994;2022-11-15T03:51:12;18.67;;;11.18;;
48665;SDS011;34452;50.796;4.994;2022-11-15T03:53:38;20.70;;;12.23;;
48665;SDS011;34452;50.796;4.994;2022-11-15T03:56:05;20.52;;;12.43;;
48665;SDS011;34452;50.796;4.994;2022-11-15T03:58:31;22.83;;;13.07;;
48665;SDS011;34452;50.796;4.994;2022-11-15T04:00:57;19.77;;;12.40;;
48665;SDS011;34452;50.796;4.994;2022-11-15T04:03:24;20.73;;;12.13;;
48665;SDS011;34452;50.796;4.994;2022-11-15T04:05:50;18.83;;;12.40;;
48665;SDS011;34452;50.796;4.994;2022-11-15T04:08:16;23.83;;;13.48;;
48665;SDS011;34452;50.796;4.994;2022-11-15T04:10:42;25.90;;;13.30;;
48665;SDS011;34452;50.796;4.994;2022-11-15T04:13:08;23.85;;;14.00;;
48665;SDS011;34452;50.796;4.994;2022-11-15T04:15:34;14.05;;;8.45;;
48665;SDS011;34452;50.796;4.994;2022-11-15T04:18:00;9.52;;;6.65;;
48665;SDS011;34452;50.796;4.994;2022-11-15T04:20:27;10.43;;;5.95;;
48665;SDS011;34452;50.796;4.994;2022-11-15T04:23:14;11.02;;;6.85;;
48665;SDS011;34452;50.796;4.994;2022-11-15T04:26:04;10.73;;;6.07;;
48665;SDS011;34452;50.796;4.994;2022-11-15T04:28:33;14.65;;;5.88;;
48665;SDS011;34452;50.796;4.994;2022-11-15T04:30:59;10.60;;;4.78;;
48665;SDS011;34452;50.796;4.994;2022-11-15T04:33:24;10.07;;;5.20;;
48665;SDS011;34452;50.796;4.994;2022-11-15T04:35:50;8.27;;;4.70;;
48665;SDS011;34452;50.796;4.994;2022-11-15T04:38:48;8.32;;;4.75;;
48665;SDS011;34452;50.796;4.994;2022-11-15T04:41:14;8.83;;;4.70;;
48665;SDS011;34452;50.796;4.994;2022-11-15T04:43:40;7.27;;;4.00;;
48665;SDS011;34452;50.796;4.994;2022-11-15T04:46:05;8.93;;;4.83;;
48665;SDS011;34452;50.796;4.994;2022-11-15T04:48:31;7.27;;;4.37;;
48665;SDS011;34452;50.796;4.994;2022-11-15T04:50:56;11.33;;;5.90;;
48665;SDS011;34452;50.796;4.994;2022-11-15T04:53:22;11.27;;;6.50;;
48665;SDS011;34452;50.796;4.994;2022-11-15T04:55:48;14.70;;;8.13;;
48665;SDS011;34452;50.796;4.994;2022-11-15T04:58:13;13.77;;;7.50;;
48665;SDS011;34452;50.796;4.994;2022-11-15T05:00:39;12.07;;;7.13;;
48665;SDS011;34452;50.796;4.994;2022-11-15T05:03:05;14.77;;;8.47;;
48665;SDS011;34452;50.796;4.994;2022-11-15T05:05:49;16.52;;;9.07;;
48665;SDS011;34452;50.796;4.994;2022-11-15T05:08:14;13.33;;;8.60;;
48665;SDS011;34452;50.796;4.994;2022-11-15T05:10:40;18.73;;;8.75;;
48665;SDS011;34452;50.796;4.994;2022-11-15T05:13:06;14.15;;;7.95;;
48665;SDS011;34452;50.796;4.994;2022-11-15T05:15:32;19.73;;;10.40;;
48665;SDS011;34452;50.796;4.994;2022-11-15T05:17:58;14.97;;;10.27;;
48665;SDS011;34452;50.796;4.994;2022-11-15T05:20:25;13.80;;;8.95;;
48665;SDS011;34452;50.796;4.994;2022-11-15T05:22:52;16.30;;;9.73;;
48665;SDS011;34452;50.796;4.994;2022-11-15T05:25:18;18.17;;;8.60;;
48665;SDS011;34452;50.796;4.994;2022-11-15T05:27:44;19.67;;;9.25;;
48665;SDS011;34452;50.796;4.994;2022-11-15T05:30:10;15.00;;;8.67;;
48665;SDS011;34452;50.796;4.994;2022-11-15T05:32:36;14.43;;;7.63;;
48665;SDS011;34452;50.796;4.994;2022-11-15T05:35:02;14.93;;;7.97;;
48665;SDS011;34452;50.796;4.994;2022-11-15T05:37:31;13.07;;;7.38;;
48665;SDS011;34452;50.796;4.994;2022-11-15T05:39:57;14.93;;;7.07;;
48665;SDS011;34452;50.796;4.994;2022-11-15T05:42:23;15.53;;;7.20;;
48665;SDS011;34452;50.796;4.994;2022-11-15T05:44:51;12.25;;;7.03;;
48665;SDS011;34452;50.796;4.994;2022-11-15T05:47:19;13.85;;;7.40;;
48665;SDS011;34452;50.796;4.994;2022-11-15T05:49:49;11.93;;;6.47;;
48665;SDS011;34452;50.796;4.994;2022-11-15T05:52:17;11.95;;;6.65;;
48665;SDS011;34452;50.796;4.994;2022-11-15T05:54:47;13.80;;;7.43;;
48665;SDS011;34452;50.796;4.994;2022-11-15T05:59:39;19.73;;;8.38;;
48665;SDS011;34452;50.796;4.994;2022-11-15T06:02:06;17.33;;;9.07;;
48665;SDS011;34452;50.796;4.994;2022-11-15T06:04:31;13.63;;;7.68;;
48665;SDS011;34452;50.796;4.994;2022-11-15T06:06:58;13.93;;;7.37;;
48665;SDS011;34452;50.796;4.994;2022-11-15T06:09:24;19.75;;;7.82;;
48665;SDS011;34452;50.796;4.994;2022-11-15T06:11:49;20.15;;;8.13;;
48665;SDS011;34452;50.796;4.994;2022-11-15T06:14:15;15.87;;;8.20;;
48665;SDS011;34452;50.796;4.994;2022-11-15T06:16:41;12.83;;;7.30;;
48665;SDS011;34452;50.796;4.994;2022-11-15T06:19:06;11.00;;;6.70;;
48665;SDS011;34452;50.796;4.994;2022-11-15T06:21:32;12.38;;;6.43;;
48665;SDS011;34452;50.796;4.994;2022-11-15T06:23:58;14.32;;;6.68;;
48665;SDS011;34452;50.796;4.994;2022-11-15T06:26:24;12.27;;;6.30;;
48665;SDS011;34452;50.796;4.994;2022-11-15T06:28:49;13.80;;;6.40;;
48665;SDS011;34452;50.796;4.994;2022-11-15T06:31:15;10.60;;;4.90;;
48665;SDS011;34452;50.796;4.994;2022-11-15T06:33:41;7.60;;;4.30;;
48665;SDS011;34452;50.796;4.994;2022-11-15T06:36:07;10.77;;;4.10;;
48665;SDS011;34452;50.796;4.994;2022-11-15T06:38:35;7.40;;;4.20;;
48665;SDS011;34452;50.796;4.994;2022-11-15T06:43:28;11.57;;;3.88;;
48665;SDS011;34452;50.796;4.994;2022-11-15T06:45:53;6.72;;;3.92;;
48665;SDS011;34452;50.796;4.994;2022-11-15T06:48:19;7.10;;;3.80;;
48665;SDS011;34452;50.796;4.994;2022-11-15T06:50:55;6.77;;;3.80;;
48665;SDS011;34452;50.796;4.994;2022-11-15T06:53:23;6.43;;;3.10;;
48665;SDS011;34452;50.796;4.994;2022-11-15T06:55:49;8.23;;;4.45;;
48665;SDS011;34452;50.796;4.994;2022-11-15T07:00:41;11.35;;;5.03;;
48665;SDS011;34452;50.796;4.994;2022-11-15T07:03:07;11.63;;;5.28;;
48665;SDS011;34452;50.796;4.994;2022-11-15T07:05:33;7.15;;;4.88;;
48665;SDS011;34452;50.796;4.994;2022-11-15T07:07:59;10.55;;;4.85;;
48665;SDS011;34452;50.796;4.994;2022-11-15T07:10:25;7.15;;;4.18;;
48665;SDS011;34452;50.796;4.994;2022-11-15T07:12:52;6.65;;;4.30;;
48665;SDS011;34452;50.796;4.994;2022-11-15T07:15:19;10.15;;;3.85;;
48665;SDS011;34452;50.796;4.994;2022-11-15T07:17:46;10.45;;;4.40;;
48665;SDS011;34452;50.796;4.994;2022-11-15T07:20:13;9.98;;;4.05;;
48665;SDS011;34452;50.796;4.994;2022-11-15T07:22:39;10.88;;;4.78;;
48665;SDS011;34452;50.796;4.994;2022-11-15T07:25:05;6.93;;;4.38;;
48665;SDS011;34452;50.796;4.994;2022-11-15T07:27:32;5.80;;;3.50;;
48665;SDS011;34452;50.796;4.994;2022-11-15T07:29:58;7.80;;;3.83;;
48665;SDS011;34452;50.796;4.994;2022-11-15T07:32:23;7.27;;;4.10;;
48665;SDS011;34452;50.796;4.994;2022-11-15T07:34:49;6.63;;;3.57;;
48665;SDS011;34452;50.796;4.994;2022-11-15T07:37:15;4.73;;;3.40;;
48665;SDS011;34452;50.796;4.994;2022-11-15T07:39:42;9.52;;;3.30;;
48665;SDS011;34452;50.796;4.994;2022-11-15T07:42:07;8.75;;;3.78;;
48665;SDS011;34452;50.796;4.994;2022-11-15T07:44:51;5.68;;;3.53;;
48665;SDS011;34452;50.796;4.994;2022-11-15T07:47:17;11.27;;;3.45;;
48665;SDS011;34452;50.796;4.994;2022-11-15T07:49:43;7.80;;;3.40;;
48665;SDS011;34452;50.796;4.994;2022-11-15T07:52:11;5.70;;;3.08;;
48665;SDS011;34452;50.796;4.994;2022-11-15T07:54:37;9.25;;;2.72;;
48665;SDS011;34452;50.796;4.994;2022-11-15T07:57:03;11.90;;;2.92;;
48665;SDS011;34452;50.796;4.994;2022-11-15T08:01:54;5.22;;;2.38;;
48665;SDS011;34452;50.796;4.994;2022-11-15T08:04:20;3.60;;;2.27;;
48665;SDS011;34452;50.796;4.994;2022-11-15T08:06:46;6.57;;;1.92;;
48665;SDS011;34452;50.796;4.994;2022-11-15T08:09:12;4.47;;;1.75;;
48665;SDS011;34452;50.796;4.994;2022-11-15T08:11:37;5.47;;;1.92;;
48665;SDS011;34452;50.796;4.994;2022-11-15T08:14:03;7.55;;;2.20;;
48665;SDS011;34452;50.796;4.994;2022-11-15T08:16:29;2.03;;;1.27;;
48665;SDS011;34452;50.796;4.994;2022-11-15T08:18:55;9.27;;;1.60;;
48665;SDS011;34452;50.796;4.994;2022-11-15T08:21:21;5.27;;;1.73;;
48665;SDS011;34452;50.796;4.994;2022-11-15T08:23:48;9.32;;;1.83;;
48665;SDS011;34452;50.796;4.994;2022-11-15T08:26:13;4.97;;;1.40;;
48665;SDS011;34452;50.796;4.994;2022-11-15T08:28:39;8.02;;;1.35;;
48665;SDS011;34452;50.796;4.994;2022-11-15T08:31:05;6.85;;;1.30;;
48665;SDS011;34452;50.796;4.994;2022-11-15T08:33:31;2.40;;;1.15;;
48665;SDS011;34452;50.796;4.994;2022-11-15T08:38:24;2.08;;;0.80;;
48665;SDS011;34452;50.796;4.994;2022-11-15T08:40:51;10.68;;;1.55;;
48665;SDS011;34452;50.796;4.994;2022-11-15T08:43:18;4.55;;;1.02;;
48665;SDS011;34452;50.796;4.994;2022-11-15T08:45:43;3.07;;;1.10;;
48665;SDS011;34452;50.796;4.994;2022-11-15T08:48:10;3.53;;;1.10;;
48665;SDS011;34452;50.796;4.994;2022-11-15T08:50:35;5.88;;;1.08;;
48665;SDS011;34452;50.796;4.994;2022-11-15T08:53:05;6.18;;;0.98;;
48665;SDS011;34452;50.796;4.994;2022-11-15T08:55:32;5.63;;;1.20;;
48665;SDS011;34452;50.796;4.994;2022-11-15T08:58:03;6.88;;;2.47;;
48665;SDS011;34452;50.796;4.994;2022-11-15T09:00:29;8.50;;;1.23;;
48665;SDS011;34452;50.796;4.994;2022-11-15T09:02:55;10.00;;;1.30;;
48665;SDS011;34452;50.796;4.994;2022-11-15T09:05:20;9.00;;;1.47;;
48665;SDS011;34452;50.796;4.994;2022-11-15T09:07:46;5.60;;;1.10;;
48665;SDS011;34452;50.796;4.994;2022-11-15T09:10:12;4.97;;;0.90;;
48665;SDS011;34452;50.796;4.994;2022-11-15T09:12:37;3.50;;;0.80;;
48665;SDS011;34452;50.796;4.994;2022-11-15T09:15:04;11.30;;;1.10;;
48665;SDS011;34452;50.796;4.994;2022-11-15T09:17:30;3.70;;;0.80;;
48665;SDS011;34452;50.796;4.994;2022-11-15T09:19:56;10.07;;;1.33;;
48665;SDS011;34452;50.796;4.994;2022-11-15T09:22:21;2.63;;;0.60;;
48665;SDS011;34452;50.796;4.994;2022-11-15T09:24:47;6.25;;;1.30;;
48665;SDS011;34452;50.796;4.994;2022-11-15T09:27:13;3.80;;;1.00;;
48665;SDS011;34452;50.796;4.994;2022-11-15T09:29:39;7.77;;;1.23;;
48665;SDS011;34452;50.796;4.994;2022-11-15T09:32:05;5.60;;;1.20;;
48665;SDS011;34452;50.796;4.994;2022-11-15T09:34:31;10.63;;;0.98;;
48665;SDS011;34452;50.796;4.994;2022-11-15T09:36:56;5.50;;;1.45;;
48665;SDS011;34452;50.796;4.994;2022-11-15T09:39:22;3.10;;;0.93;;
48665;SDS011;34452;50.796;4.994;2022-11-15T09:41:50;5.67;;;1.53;;
48665;SDS011;34452;50.796;4.994;2022-11-15T09:45:20;4.82;;;1.35;;
48665;SDS011;34452;50.796;4.994;2022-11-15T09:47:46;11.80;;;1.40;;
48665;SDS011;34452;50.796;4.994;2022-11-15T09:50:17;6.85;;;1.63;;
48665;SDS011;34452;50.796;4.994;2022-11-15T09:52:54;7.72;;;1.30;;
48665;SDS011;34452;50.796;4.994;2022-11-15T09:55:20;6.35;;;1.50;;
48665;SDS011;34452;50.796;4.994;2022-11-15T10:01:10;9.57;;;1.17;;
48665;SDS011;34452;50.796;4.994;2022-11-15T10:03:44;4.60;;;1.10;;
48665;SDS011;34452;50.796;4.994;2022-11-15T10:06:15;3.90;;;0.70;;
48665;SDS011;34452;50.796;4.994;2022-11-15T10:08:54;6.38;;;1.13;;
48665;SDS011;34452;50.796;4.994;2022-11-15T10:11:27;5.80;;;1.30;;
48665;SDS011;34452;50.796;4.994;2022-11-15T10:14:17;4.35;;;1.10;;
48665;SDS011;34452;50.796;4.994;2022-11-15T10:25:45;5.03;;;0.95;;
48665;SDS011;34452;50.796;4.994;2022-11-15T10:30:22;6.28;;;1.40;;
48665;SDS011;34452;50.796;4.994;2022-11-15T10:32:48;6.00;;;1.20;;
48665;SDS011;34452;50.796;4.994;2022-11-15T10:37:50;8.63;;;1.67;;
48665;SDS011;34452;50.796;4.994;2022-11-15T10:40:20;7.03;;;1.33;;
48665;SDS011;34452;50.796;4.994;2022-11-15T10:42:47;5.28;;;1.50;;
48665;SDS011;34452;50.796;4.994;2022-11-15T10:45:30;6.00;;;1.10;;
48665;SDS011;34452;50.796;4.994;2022-11-15T10:50:37;6.72;;;1.30;;
48665;SDS011;34452;50.796;4.994;2022-11-15T10:53:19;6.63;;;1.17;;
48665;SDS011;34452;50.796;4.994;2022-11-15T10:55:56;9.57;;;2.13;;
48665;SDS011;34452;50.796;4.994;2022-11-15T11:01:17;6.85;;;1.17;;
48665;SDS011;34452;50.796;4.994;2022-11-15T11:03:45;7.40;;;1.25;;
48665;SDS011;34452;50.796;4.994;2022-11-15T11:09:25;3.58;;;0.90;;
48665;SDS011;34452;50.796;4.994;2022-11-15T11:11:57;6.03;;;0.88;;
48665;SDS011;34452;50.796;4.994;2022-11-15T11:14:24;5.20;;;1.15;;
48665;SDS011;34452;50.796;4.994;2022-11-15T11:30:34;6.15;;;1.00;;
48665;SDS011;34452;50.796;4.994;2022-11-15T11:36:11;5.70;;;1.15;;
48665;SDS011;34452;50.796;4.994;2022-11-15T11:49:50;4.57;;;1.10;;
48665;SDS011;34452;50.796;4.994;2022-11-15T12:00:02;6.50;;;0.85;;
48665;SDS011;34452;50.796;4.994;2022-11-15T12:03:07;5.90;;;0.95;;
48665;SDS011;34452;50.796;4.994;2022-11-15T12:11:22;5.78;;;0.90;;
48665;SDS011;34452;50.796;4.994;2022-11-15T12:13:59;3.45;;;0.65;;
48665;SDS011;34452;50.796;4.994;2022-11-15T12:16:28;2.97;;;0.70;;
48665;SDS011;34452;50.796;4.994;2022-11-15T12:18:56;8.48;;;1.10;;
48665;SDS011;34452;50.796;4.994;2022-11-15T12:23:55;3.30;;;0.93;;
48665;SDS011;34452;50.796;4.994;2022-11-15T12:26:26;3.10;;;0.75;;
48665;SDS011;34452;50.796;4.994;2022-11-15T12:28:58;6.93;;;0.82;;
48665;SDS011;34452;50.796;4.994;2022-11-15T12:31:35;4.13;;;1.00;;
48665;SDS011;34452;50.796;4.994;2022-11-15T12:34:13;4.97;;;0.93;;
48665;SDS011;34452;50.796;4.994;2022-11-15T12:36:45;5.80;;;0.98;;
48665;SDS011;34452;50.796;4.994;2022-11-15T12:39:13;4.63;;;1.00;;
48665;SDS011;34452;50.796;4.994;2022-11-15T12:44:13;5.68;;;0.82;;
48665;SDS011;34452;50.796;4.994;2022-11-15T13:02:26;2.78;;;0.73;;
48665;SDS011;34452;50.796;4.994;2022-11-15T13:05:24;5.05;;;0.82;;
48665;SDS011;34452;50.796;4.994;2022-11-15T13:17:44;3.47;;;0.90;;
48665;SDS011;34452;50.796;4.994;2022-11-15T13:22:47;2.70;;;0.70;;
48665;SDS011;34452;50.796;4.994;2022-11-15T13:30:56;2.20;;;0.90;;
48665;SDS011;34452;50.796;4.994;2022-11-15T13:33:25;2.47;;;0.85;;
48665;SDS011;34452;50.796;4.994;2022-11-15T13:38:36;1.63;;;0.80;;
48665;SDS011;34452;50.796;4.994;2022-11-15T13:41:23;5.05;;;1.10;;
48665;SDS011;34452;50.796;4.994;2022-11-15T13:43:51;3.20;;;0.90;;
48665;SDS011;34452;50.796;4.994;2022-11-15T13:46:20;2.50;;;1.00;;
48665;SDS011;34452;50.796;4.994;2022-11-15T13:48:51;4.22;;;1.00;;
48665;SDS011;34452;50.796;4.994;2022-11-15T13:57:12;6.20;;;1.00;;
48665;SDS011;34452;50.796;4.994;2022-11-15T13:59:46;2.35;;;1.25;;
48665;SDS011;34452;50.796;4.994;2022-11-15T14:02:18;2.63;;;1.00;;
48665;SDS011;34452;50.796;4.994;2022-11-15T14:04:48;0.63;;;0.60;;
48665;SDS011;34452;50.796;4.994;2022-11-15T14:07:20;1.83;;;0.90;;
48665;SDS011;34452;50.796;4.994;2022-11-15T14:09:48;4.93;;;0.73;;
48665;SDS011;34452;50.796;4.994;2022-11-15T14:12:24;1.48;;;0.75;;
48665;SDS011;34452;50.796;4.994;2022-11-15T14:14:52;1.85;;;0.70;;
48665;SDS011;34452;50.796;4.994;2022-11-15T14:17:20;12.23;;;0.90;;
48665;SDS011;34452;50.796;4.994;2022-11-15T14:19:57;2.17;;;0.80;;
48665;SDS011;34452;50.796;4.994;2022-11-15T14:22:24;1.85;;;0.85;;
48665;SDS011;34452;50.796;4.994;2022-11-15T14:27:40;3.28;;;1.38;;
48665;SDS011;34452;50.796;4.994;2022-11-15T14:30:17;5.18;;;1.65;;
48665;SDS011;34452;50.796;4.994;2022-11-15T14:32:47;1.70;;;0.98;;
48665;SDS011;34452;50.796;4.994;2022-11-15T14:35:16;3.05;;;1.00;;
48665;SDS011;34452;50.796;4.994;2022-11-15T14:37:44;3.17;;;1.00;;
48665;SDS011;34452;50.796;4.994;2022-11-15T14:40:14;3.15;;;1.15;;
48665;SDS011;34452;50.796;4.994;2022-11-15T14:42:42;3.40;;;1.05;;
48665;SDS011;34452;50.796;4.994;2022-11-15T14:45:14;1.85;;;0.90;;
48665;SDS011;34452;50.796;4.994;2022-11-15T14:47:41;3.40;;;0.63;;
48665;SDS011;34452;50.796;4.994;2022-11-15T14:50:12;1.55;;;0.90;;
48665;SDS011;34452;50.796;4.994;2022-11-15T14:52:39;4.80;;;0.70;;
48665;SDS011;34452;50.796;4.994;2022-11-15T14:55:10;3.22;;;0.90;;
48665;SDS011;34452;50.796;4.994;2022-11-15T14:57:49;3.15;;;0.80;;
48665;SDS011;34452;50.796;4.994;2022-11-15T15:00:15;1.35;;;0.73;;
48665;SDS011;34452;50.796;4.994;2022-11-15T15:02:42;2.58;;;1.00;;
48665;SDS011;34452;50.796;4.994;2022-11-15T15:07:37;1.88;;;0.90;;
48665;SDS011;34452;50.796;4.994;2022-11-15T15:10:03;2.07;;;0.70;;
48665;SDS011;34452;50.796;4.994;2022-11-15T15:12:29;1.50;;;0.80;;
48665;SDS011;34452;50.796;4.994;2022-11-15T15:14:55;4.60;;;1.02;;
48665;SDS011;34452;50.796;4.994;2022-11-15T15:17:20;3.35;;;1.17;;
48665;SDS011;34452;50.796;4.994;2022-11-15T15:19:46;3.63;;;0.83;;
48665;SDS011;34452;50.796;4.994;2022-11-15T15:22:13;3.97;;;1.08;;
48665;SDS011;34452;50.796;4.994;2022-11-15T15:24:43;3.58;;;1.30;;
48665;SDS011;34452;50.796;4.994;2022-11-15T15:27:10;3.92;;;0.90;;
48665;SDS011;34452;50.796;4.994;2022-11-15T15:29:37;4.40;;;0.90;;
48665;SDS011;34452;50.796;4.994;2022-11-15T15:32:03;2.92;;;1.00;;
48665;SDS011;34452;50.796;4.994;2022-11-15T15:34:30;2.33;;;0.93;;
48665;SDS011;34452;50.796;4.994;2022-11-15T15:39:55;4.00;;;1.10;;
48665;SDS011;34452;50.796;4.994;2022-11-15T15:42:22;3.45;;;1.40;;
48665;SDS011;34452;50.796;4.994;2022-11-15T15:47:22;2.42;;;1.15;;
48665;SDS011;34452;50.796;4.994;2022-11-15T15:49:48;2.03;;;1.50;;
48665;SDS011;34452;50.796;4.994;2022-11-15T15:52:15;5.05;;;1.30;;
48665;SDS011;34452;50.796;4.994;2022-11-15T15:54:41;2.60;;;1.23;;
48665;SDS011;34452;50.796;4.994;2022-11-15T15:57:07;2.00;;;1.10;;
48665;SDS011;34452;50.796;4.994;2022-11-15T15:59:36;3.13;;;1.00;;
48665;SDS011;34452;50.796;4.994;2022-11-15T16:02:03;5.80;;;1.70;;
48665;SDS011;34452;50.796;4.994;2022-11-15T16:04:29;7.53;;;1.77;;
48665;SDS011;34452;50.796;4.994;2022-11-15T16:07:01;1.98;;;1.40;;
48665;SDS011;34452;50.796;4.994;2022-11-15T16:09:28;3.95;;;1.65;;
48665;SDS011;34452;50.796;4.994;2022-11-15T16:12:13;5.45;;;2.15;;
48665;SDS011;34452;50.796;4.994;2022-11-15T16:14:39;1.65;;;1.13;;
48665;SDS011;34452;50.796;4.994;2022-11-15T16:17:05;4.35;;;1.50;;
48665;SDS011;34452;50.796;4.994;2022-11-15T16:19:30;2.67;;;1.23;;
48665;SDS011;34452;50.796;4.994;2022-11-15T16:21:56;3.47;;;1.30;;
48665;SDS011;34452;50.796;4.994;2022-11-15T16:24:22;3.55;;;1.20;;
48665;SDS011;34452;50.796;4.994;2022-11-15T16:26:48;4.88;;;2.28;;
48665;SDS011;34452;50.796;4.994;2022-11-15T16:29:15;3.72;;;1.55;;
48665;SDS011;34452;50.796;4.994;2022-11-15T16:31:41;2.67;;;1.50;;
48665;SDS011;34452;50.796;4.994;2022-11-15T16:34:07;4.97;;;2.10;;
48665;SDS011;34452;50.796;4.994;2022-11-15T16:36:33;9.77;;;1.58;;
48665;SDS011;34452;50.796;4.994;2022-11-15T16:39:00;4.80;;;2.45;;
48665;SDS011;34452;50.796;4.994;2022-11-15T16:41:29;5.65;;;2.20;;
48665;SDS011;34452;50.796;4.994;2022-11-15T16:43:55;4.15;;;2.20;;
48665;SDS011;34452;50.796;4.994;2022-11-15T16:48:48;3.85;;;1.85;;
48665;SDS011;34452;50.796;4.994;2022-11-15T16:51:15;8.45;;;2.08;;
48665;SDS011;34452;50.796;4.994;2022-11-15T16:53:41;2.55;;;2.17;;
48665;SDS011;34452;50.796;4.994;2022-11-15T16:58:53;4.10;;;2.22;;
48665;SDS011;34452;50.796;4.994;2022-11-15T17:01:24;2.72;;;2.15;;
48665;SDS011;34452;50.796;4.994;2022-11-15T17:03:51;5.50;;;2.00;;
48665;SDS011;34452;50.796;4.994;2022-11-15T17:06:17;2.97;;;2.17;;
48665;SDS011;34452;50.796;4.994;2022-11-15T17:08:44;3.33;;;2.25;;
48665;SDS011;34452;50.796;4.994;2022-11-15T17:11:12;3.53;;;1.98;;
48665;SDS011;34452;50.796;4.994;2022-11-15T17:13:40;2.65;;;1.67;;
48665;SDS011;34452;50.796;4.994;2022-11-15T17:16:07;3.30;;;1.75;;
48665;SDS011;34452;50.796;4.994;2022-11-15T17:18:35;7.78;;;1.80;;
48665;SDS011;34452;50.796;4.994;2022-11-15T17:21:08;4.30;;;2.08;;
48665;SDS011;34452;50.796;4.994;2022-11-15T17:23:39;2.40;;;1.75;;
48665;SDS011;34452;50.796;4.994;2022-11-15T17:26:05;3.25;;;2.15;;
48665;SDS011;34452;50.796;4.994;2022-11-15T17:28:31;4.10;;;2.22;;
48665;SDS011;34452;50.796;4.994;2022-11-15T17:30:57;3.53;;;2.30;;
48665;SDS011;34452;50.796;4.994;2022-11-15T17:33:23;4.90;;;2.25;;
48665;SDS011;34452;50.796;4.994;2022-11-15T17:35:59;2.83;;;2.17;;
48665;SDS011;34452;50.796;4.994;2022-11-15T17:38:26;5.15;;;1.83;;
48665;SDS011;34452;50.796;4.994;2022-11-15T17:41:02;11.05;;;2.20;;
48665;SDS011;34452;50.796;4.994;2022-11-15T17:43:33;3.08;;;1.77;;
48665;SDS011;34452;50.796;4.994;2022-11-15T17:45:59;3.53;;;1.80;;
48665;SDS011;34452;50.796;4.994;2022-11-15T17:48:29;5.50;;;2.17;;
48665;SDS011;34452;50.796;4.994;2022-11-15T17:51:02;5.28;;;1.85;;
48665;SDS011;34452;50.796;4.994;2022-11-15T17:53:31;3.58;;;2.08;;
48665;SDS011;34452;50.796;4.994;2022-11-15T17:56:02;3.30;;;1.92;;
48665;SDS011;34452;50.796;4.994;2022-11-15T17:58:30;2.65;;;1.70;;